sensor_id;sensor_type;location;lat;lon;timestamp;temperature;humidity
21592;DHT22;10958;50.892;3.992;2022-12-18T00:05:01;-2.40;99.90
21592;DHT22;10958;50.892;3.992;2022-12-18T00:07:46;-2.40;99.90
21592;DHT22;10958;50.892;3.992;2022-12-18T00:13:40;-2.20;99.90
21592;DHT22;10958;50.892;3.992;2022-12-18T00:16:23;-2.10;99.90
21592;DHT22;10958;50.892;3.992;2022-12-18T00:21:50;-2.30;99.90
21592;DHT22;10958;50.892;3.992;2022-12-18T00:24:16;-2.20;99.90
21592;DHT22;10958;50.892;3.992;2022-12-18T00:26:54;-2.40;99.90
21592;DHT22;10958;50.892;3.992;2022-12-18T00:29:32;-2.60;99.90
21592;DHT22;10958;50.892;3.992;2022-12-18T00:32:14;-2.70;99.90
21592;DHT22;10958;50.892;3.992;2022-12-18T00:34:44;-2.80;99.90
21592;DHT22;10958;50.892;3.992;2022-12-18T00:39:51;-2.70;99.90
21592;DHT22;10958;50.892;3.992;2022-12-18T00:42:31;-2.70;99.90
21592;DHT22;10958;50.892;3.992;2022-12-18T00:45:17;-2.50;99.90
21592;DHT22;10958;50.892;3.992;2022-12-18T00:47:44;-2.40;99.90
21592;DHT22;10958;50.892;3.992;2022-12-18T00:50:25;-2.50;99.90
21592;DHT22;10958;50.892;3.992;2022-12-18T00:52:52;-2.50;99.90
21592;DHT22;10958;50.892;3.992;2022-12-18T00:55:28;-2.50;99.90
21592;DHT22;10958;50.892;3.992;2022-12-18T01:01:19;-2.40;99.90
21592;DHT22;10958;50.892;3.992;2022-12-18T01:03:48;-2.30;99.90
21592;DHT22;10958;50.892;3.992;2022-12-18T01:12:20;-1.90;99.90
21592;DHT22;10958;50.892;3.992;2022-12-18T01:14:59;-1.80;99.90
21592;DHT22;10958;50.892;3.992;2022-12-18T01:22:50;-2.50;99.90
21592;DHT22;10958;50.892;3.992;2022-12-18T01:25:40;-2.50;99.90
21592;DHT22;10958;50.892;3.992;2022-12-18T01:28:15;-2.40;99.90
21592;DHT22;10958;50.892;3.992;2022-12-18T01:30:42;-2.40;99.90
21592;DHT22;10958;50.892;3.992;2022-12-18T01:33:11;-2.30;99.90
21592;DHT22;10958;50.892;3.992;2022-12-18T01:36:14;-2.20;99.90
21592;DHT22;10958;50.892;3.992;2022-12-18T01:38:51;-2.20;99.90
21592;DHT22;10958;50.892;3.992;2022-12-18T01:41:37;-2.20;99.90
21592;DHT22;10958;50.892;3.992;2022-12-18T01:49:51;-2.20;99.90
21592;DHT22;10958;50.892;3.992;2022-12-18T01:57:15;-2.20;99.90
21592;DHT22;10958;50.892;3.992;2022-12-18T01:59:57;-2.40;99.90
21592;DHT22;10958;50.892;3.992;2022-12-18T02:02:32;-2.60;99.90
21592;DHT22;10958;50.892;3.992;2022-12-18T02:05:04;-2.40;99.90
21592;DHT22;10958;50.892;3.992;2022-12-18T02:14:23;-2.70;99.90
21592;DHT22;10958;50.892;3.992;2022-12-18T02:16:54;-2.50;99.90
21592;DHT22;10958;50.892;3.992;2022-12-18T02:19:35;-2.40;99.90
21592;DHT22;10958;50.892;3.992;2022-12-18T02:28:25;-2.70;99.90
21592;DHT22;10958;50.892;3.992;2022-12-18T02:39:04;-2.70;99.90
21592;DHT22;10958;50.892;3.992;2022-12-18T02:41:46;-2.90;99.90
21592;DHT22;10958;50.892;3.992;2022-12-18T02:44:30;-3.00;99.90
21592;DHT22;10958;50.892;3.992;2022-12-18T02:50:26;-2.90;99.90
21592;DHT22;10958;50.892;3.992;2022-12-18T02:53:24;-2.70;99.90
21592;DHT22;10958;50.892;3.992;2022-12-18T02:59:04;-3.00;99.90
21592;DHT22;10958;50.892;3.992;2022-12-18T03:07:39;-2.80;99.90
21592;DHT22;10958;50.892;3.992;2022-12-18T03:10:18;-2.70;99.90
21592;DHT22;10958;50.892;3.992;2022-12-18T03:15:45;-2.80;99.90
21592;DHT22;10958;50.892;3.992;2022-12-18T03:20:50;-3.00;99.90
21592;DHT22;10958;50.892;3.992;2022-12-18T03:25:46;-3.20;99.90
21592;DHT22;10958;50.892;3.992;2022-12-18T03:28:22;-3.00;99.90
21592;DHT22;10958;50.892;3.992;2022-12-18T03:31:00;-3.20;99.90
21592;DHT22;10958;50.892;3.992;2022-12-18T03:36:03;-2.80;99.90
21592;DHT22;10958;50.892;3.992;2022-12-18T03:38:37;-2.60;99.90
21592;DHT22;10958;50.892;3.992;2022-12-18T03:54:02;-3.40;99.90
21592;DHT22;10958;50.892;3.992;2022-12-18T03:56:57;-3.50;99.90
21592;DHT22;10958;50.892;3.992;2022-12-18T04:02:18;-3.90;99.90
21592;DHT22;10958;50.892;3.992;2022-12-18T04:05:02;-3.90;99.90
21592;DHT22;10958;50.892;3.992;2022-12-18T04:07:45;-3.50;99.90
21592;DHT22;10958;50.892;3.992;2022-12-18T04:10:20;-3.50;99.90
21592;DHT22;10958;50.892;3.992;2022-12-18T04:23:43;-2.90;99.90
21592;DHT22;10958;50.892;3.992;2022-12-18T04:26:09;-2.80;99.90
21592;DHT22;10958;50.892;3.992;2022-12-18T04:28:39;-2.70;99.90
21592;DHT22;10958;50.892;3.992;2022-12-18T04:31:10;-2.90;99.90
21592;DHT22;10958;50.892;3.992;2022-12-18T04:33:54;-2.90;99.90
21592;DHT22;10958;50.892;3.992;2022-12-18T04:36:24;-3.00;99.90
21592;DHT22;10958;50.892;3.992;2022-12-18T04:38:55;-3.20;99.90
21592;DHT22;10958;50.892;3.992;2022-12-18T04:41:21;-3.10;99.90
21592;DHT22;10958;50.892;3.992;2022-12-18T04:44:03;-3.20;99.90
21592;DHT22;10958;50.892;3.992;2022-12-18T04:46:49;-3.50;99.90
21592;DHT22;10958;50.892;3.992;2022-12-18T04:49:19;-3.70;99.90
21592;DHT22;10958;50.892;3.992;2022-12-18T04:51:53;-4.00;99.90
21592;DHT22;10958;50.892;3.992;2022-12-18T04:54:19;-4.30;99.90
21592;DHT22;10958;50.892;3.992;2022-12-18T04:57:12;-4.40;99.90
21592;DHT22;10958;50.892;3.992;2022-12-18T04:59:43;-4.60;99.90
21592;DHT22;10958;50.892;3.992;2022-12-18T05:02:39;-4.60;99.90
21592;DHT22;10958;50.892;3.992;2022-12-18T05:05:31;-4.70;99.90
21592;DHT22;10958;50.892;3.992;2022-12-18T05:08:08;-4.60;99.90
21592;DHT22;10958;50.892;3.992;2022-12-18T05:10:44;-4.30;99.90
21592;DHT22;10958;50.892;3.992;2022-12-18T05:13:23;-4.40;99.90
21592;DHT22;10958;50.892;3.992;2022-12-18T05:15:55;-4.20;99.90
21592;DHT22;10958;50.892;3.992;2022-12-18T05:18:24;-4.10;99.90
21592;DHT22;10958;50.892;3.992;2022-12-18T05:21:11;-3.90;99.90
21592;DHT22;10958;50.892;3.992;2022-12-18T05:23:44;-3.70;99.90
21592;DHT22;10958;50.892;3.992;2022-12-18T05:26:36;-3.60;99.90
21592;DHT22;10958;50.892;3.992;2022-12-18T05:31:57;-3.90;99.90
21592;DHT22;10958;50.892;3.992;2022-12-18T05:34:23;-4.10;99.90
21592;DHT22;10958;50.892;3.992;2022-12-18T05:37:19;-4.20;99.90
21592;DHT22;10958;50.892;3.992;2022-12-18T05:42:26;-3.90;99.90
21592;DHT22;10958;50.892;3.992;2022-12-18T05:44:58;-3.90;99.90
21592;DHT22;10958;50.892;3.992;2022-12-18T05:50:52;-4.00;99.90
21592;DHT22;10958;50.892;3.992;2022-12-18T05:53:32;-4.10;99.90
21592;DHT22;10958;50.892;3.992;2022-12-18T05:56:22;-4.10;99.90
21592;DHT22;10958;50.892;3.992;2022-12-18T05:58:53;-4.10;99.90
21592;DHT22;10958;50.892;3.992;2022-12-18T06:11:43;-3.50;99.90
21592;DHT22;10958;50.892;3.992;2022-12-18T06:14:29;-3.60;99.90
21592;DHT22;10958;50.892;3.992;2022-12-18T06:17:02;-3.30;99.90
21592;DHT22;10958;50.892;3.992;2022-12-18T06:19:28;-3.20;99.90
21592;DHT22;10958;50.892;3.992;2022-12-18T06:24:30;-3.70;99.90
21592;DHT22;10958;50.892;3.992;2022-12-18T06:26:56;-3.50;99.90
21592;DHT22;10958;50.892;3.992;2022-12-18T06:29:23;-3.40;99.90
21592;DHT22;10958;50.892;3.992;2022-12-18T06:31:52;-3.30;99.90
21592;DHT22;10958;50.892;3.992;2022-12-18T06:34:19;-3.40;99.90
21592;DHT22;10958;50.892;3.992;2022-12-18T06:36:59;-3.70;99.90
21592;DHT22;10958;50.892;3.992;2022-12-18T06:39:38;-3.80;99.90
21592;DHT22;10958;50.892;3.992;2022-12-18T06:42:04;-3.60;99.90
21592;DHT22;10958;50.892;3.992;2022-12-18T06:44:48;-3.40;99.90
21592;DHT22;10958;50.892;3.992;2022-12-18T06:47:45;-3.10;99.90
21592;DHT22;10958;50.892;3.992;2022-12-18T06:50:30;-3.30;99.90
21592;DHT22;10958;50.892;3.992;2022-12-18T06:53:01;-3.50;99.90
21592;DHT22;10958;50.892;3.992;2022-12-18T06:55:30;-4.10;99.90
21592;DHT22;10958;50.892;3.992;2022-12-18T06:58:05;-4.20;99.90
21592;DHT22;10958;50.892;3.992;2022-12-18T07:00:35;-4.20;99.90
21592;DHT22;10958;50.892;3.992;2022-12-18T07:03:10;-3.80;99.90
21592;DHT22;10958;50.892;3.992;2022-12-18T07:05:39;-3.40;99.90
21592;DHT22;10958;50.892;3.992;2022-12-18T07:08:14;-3.40;99.90
21592;DHT22;10958;50.892;3.992;2022-12-18T07:10:56;-3.40;99.90
21592;DHT22;10958;50.892;3.992;2022-12-18T07:13:25;-3.30;99.90
21592;DHT22;10958;50.892;3.992;2022-12-18T07:16:12;-3.40;99.90
21592;DHT22;10958;50.892;3.992;2022-12-18T07:19:35;-3.40;99.90
21592;DHT22;10958;50.892;3.992;2022-12-18T07:22:44;-3.70;99.90
21592;DHT22;10958;50.892;3.992;2022-12-18T07:25:18;-3.80;99.90
21592;DHT22;10958;50.892;3.992;2022-12-18T07:27:49;-4.20;99.90
21592;DHT22;10958;50.892;3.992;2022-12-18T07:30:52;-4.40;99.90
21592;DHT22;10958;50.892;3.992;2022-12-18T07:33:19;-4.50;99.90
21592;DHT22;10958;50.892;3.992;2022-12-18T07:36:02;-4.60;99.90
21592;DHT22;10958;50.892;3.992;2022-12-18T07:38:29;-4.50;99.90
21592;DHT22;10958;50.892;3.992;2022-12-18T07:41:29;-4.20;99.90
21592;DHT22;10958;50.892;3.992;2022-12-18T07:44:01;-4.00;99.90
21592;DHT22;10958;50.892;3.992;2022-12-18T07:46:31;-3.80;99.90
21592;DHT22;10958;50.892;3.992;2022-12-18T07:49:02;-3.60;99.90
21592;DHT22;10958;50.892;3.992;2022-12-18T07:54:25;-3.80;99.90
21592;DHT22;10958;50.892;3.992;2022-12-18T08:05:21;-3.80;99.90
21592;DHT22;10958;50.892;3.992;2022-12-18T08:15:56;-3.50;99.90
21592;DHT22;10958;50.892;3.992;2022-12-18T08:18:58;-3.60;99.90
21592;DHT22;10958;50.892;3.992;2022-12-18T08:24:30;-4.00;99.90
21592;DHT22;10958;50.892;3.992;2022-12-18T08:27:02;-3.70;99.90
21592;DHT22;10958;50.892;3.992;2022-12-18T08:29:29;-3.60;99.90
21592;DHT22;10958;50.892;3.992;2022-12-18T08:31:56;-3.50;99.90
21592;DHT22;10958;50.892;3.992;2022-12-18T08:34:24;-3.60;99.90
21592;DHT22;10958;50.892;3.992;2022-12-18T08:36:56;-3.40;99.90
21592;DHT22;10958;50.892;3.992;2022-12-18T08:39:23;-3.20;99.90
21592;DHT22;10958;50.892;3.992;2022-12-18T08:42:04;-2.90;99.90
21592;DHT22;10958;50.892;3.992;2022-12-18T08:44:44;-2.90;99.90
21592;DHT22;10958;50.892;3.992;2022-12-18T08:47:34;-2.90;99.90
21592;DHT22;10958;50.892;3.992;2022-12-18T08:50:02;-2.80;99.90
21592;DHT22;10958;50.892;3.992;2022-12-18T08:52:34;-2.60;99.90
21592;DHT22;10958;50.892;3.992;2022-12-18T08:55:34;-2.30;99.90
21592;DHT22;10958;50.892;3.992;2022-12-18T08:58:03;-2.10;99.90
21592;DHT22;10958;50.892;3.992;2022-12-18T09:00:39;-2.00;99.90
21592;DHT22;10958;50.892;3.992;2022-12-18T09:03:12;-2.20;99.90
21592;DHT22;10958;50.892;3.992;2022-12-18T09:05:38;-2.10;99.90
21592;DHT22;10958;50.892;3.992;2022-12-18T09:08:11;-2.20;99.90
21592;DHT22;10958;50.892;3.992;2022-12-18T09:10:50;-2.20;99.90
21592;DHT22;10958;50.892;3.992;2022-12-18T09:31:38;-2.00;99.90
21592;DHT22;10958;50.892;3.992;2022-12-18T09:34:05;-1.80;99.90
21592;DHT22;10958;50.892;3.992;2022-12-18T09:37:04;-1.90;99.90
21592;DHT22;10958;50.892;3.992;2022-12-18T09:39:30;-1.80;99.90
21592;DHT22;10958;50.892;3.992;2022-12-18T09:41:57;-1.80;99.90
21592;DHT22;10958;50.892;3.992;2022-12-18T09:44:53;-1.60;99.90
21592;DHT22;10958;50.892;3.992;2022-12-18T09:47:33;-1.50;99.90
21592;DHT22;10958;50.892;3.992;2022-12-18T09:50:32;-1.60;99.90
21592;DHT22;10958;50.892;3.992;2022-12-18T09:53:12;-1.50;99.90
21592;DHT22;10958;50.892;3.992;2022-12-18T09:55:53;-1.40;99.90
21592;DHT22;10958;50.892;3.992;2022-12-18T09:58:59;-1.20;99.90
21592;DHT22;10958;50.892;3.992;2022-12-18T10:01:27;-1.30;99.90
21592;DHT22;10958;50.892;3.992;2022-12-18T10:04:26;-1.60;99.90
21592;DHT22;10958;50.892;3.992;2022-12-18T10:07:07;-1.80;99.90
21592;DHT22;10958;50.892;3.992;2022-12-18T10:15:53;-1.50;99.90
21592;DHT22;10958;50.892;3.992;2022-12-18T10:24:57;-1.70;99.90
21592;DHT22;10958;50.892;3.992;2022-12-18T10:27:31;-1.60;99.90
21592;DHT22;10958;50.892;3.992;2022-12-18T10:29:57;-1.70;99.90
21592;DHT22;10958;50.892;3.992;2022-12-18T10:32:35;-1.50;99.90
21592;DHT22;10958;50.892;3.992;2022-12-18T10:35:01;-1.40;99.90
21592;DHT22;10958;50.892;3.992;2022-12-18T10:40:59;-0.90;99.90
21592;DHT22;10958;50.892;3.992;2022-12-18T10:43:39;-0.80;99.90
21592;DHT22;10958;50.892;3.992;2022-12-18T10:51:30;-0.40;99.90
21592;DHT22;10958;50.892;3.992;2022-12-18T10:54:22;-0.30;99.90
21592;DHT22;10958;50.892;3.992;2022-12-18T10:57:29;-0.30;99.90
21592;DHT22;10958;50.892;3.992;2022-12-18T11:07:05;-0.20;99.90
21592;DHT22;10958;50.892;3.992;2022-12-18T11:09:38;0.00;99.90
21592;DHT22;10958;50.892;3.992;2022-12-18T11:12:28;0.00;99.90
21592;DHT22;10958;50.892;3.992;2022-12-18T11:14:55;0.10;99.90
21592;DHT22;10958;50.892;3.992;2022-12-18T11:20:34;0.30;99.90
21592;DHT22;10958;50.892;3.992;2022-12-18T11:23:12;0.50;99.90
21592;DHT22;10958;50.892;3.992;2022-12-18T11:25:50;0.30;99.90
21592;DHT22;10958;50.892;3.992;2022-12-18T11:29:07;0.40;99.90
21592;DHT22;10958;50.892;3.992;2022-12-18T11:31:36;0.50;99.90
21592;DHT22;10958;50.892;3.992;2022-12-18T11:34:28;0.40;99.90
21592;DHT22;10958;50.892;3.992;2022-12-18T11:37:14;0.40;99.90
21592;DHT22;10958;50.892;3.992;2022-12-18T11:40:01;0.40;99.90
21592;DHT22;10958;50.892;3.992;2022-12-18T11:46:11;0.50;99.90
21592;DHT22;10958;50.892;3.992;2022-12-18T11:54:41;0.40;99.90
21592;DHT22;10958;50.892;3.992;2022-12-18T12:00:12;0.40;99.90
21592;DHT22;10958;50.892;3.992;2022-12-18T12:03:17;0.40;99.90
21592;DHT22;10958;50.892;3.992;2022-12-18T12:06:28;0.40;99.90
21592;DHT22;10958;50.892;3.992;2022-12-18T12:38:56;0.90;99.90
21592;DHT22;10958;50.892;3.992;2022-12-18T12:41:31;0.90;99.90
21592;DHT22;10958;50.892;3.992;2022-12-18T12:44:28;0.80;99.90
21592;DHT22;10958;50.892;3.992;2022-12-18T12:47:19;1.00;99.90
21592;DHT22;10958;50.892;3.992;2022-12-18T12:49:46;0.90;99.90
21592;DHT22;10958;50.892;3.992;2022-12-18T12:52:37;0.90;99.90
21592;DHT22;10958;50.892;3.992;2022-12-18T12:55:19;0.90;99.90
21592;DHT22;10958;50.892;3.992;2022-12-18T13:04:08;0.80;99.90
21592;DHT22;10958;50.892;3.992;2022-12-18T13:06:50;0.90;99.90
21592;DHT22;10958;50.892;3.992;2022-12-18T13:09:34;1.00;99.90
21592;DHT22;10958;50.892;3.992;2022-12-18T13:12:07;1.10;99.90
21592;DHT22;10958;50.892;3.992;2022-12-18T13:15:12;1.00;99.90
21592;DHT22;10958;50.892;3.992;2022-12-18T13:17:38;0.90;99.90
21592;DHT22;10958;50.892;3.992;2022-12-18T13:20:16;1.10;99.90
21592;DHT22;10958;50.892;3.992;2022-12-18T13:22:56;1.10;99.90
21592;DHT22;10958;50.892;3.992;2022-12-18T13:25:42;1.10;99.90
21592;DHT22;10958;50.892;3.992;2022-12-18T13:31:03;1.10;99.90
21592;DHT22;10958;50.892;3.992;2022-12-18T13:33:46;1.10;99.90
21592;DHT22;10958;50.892;3.992;2022-12-18T13:36:26;0.90;99.90
21592;DHT22;10958;50.892;3.992;2022-12-18T13:44:54;1.00;99.90
21592;DHT22;10958;50.892;3.992;2022-12-18T13:47:37;1.00;99.90
21592;DHT22;10958;50.892;3.992;2022-12-18T13:50:22;1.10;99.90
21592;DHT22;10958;50.892;3.992;2022-12-18T13:52:52;1.10;99.90
21592;DHT22;10958;50.892;3.992;2022-12-18T13:55:27;1.10;99.90
21592;DHT22;10958;50.892;3.992;2022-12-18T13:58:11;1.00;99.90
21592;DHT22;10958;50.892;3.992;2022-12-18T14:00:54;1.00;99.90
21592;DHT22;10958;50.892;3.992;2022-12-18T14:03:23;0.90;99.90
21592;DHT22;10958;50.892;3.992;2022-12-18T14:06:06;0.90;99.90
21592;DHT22;10958;50.892;3.992;2022-12-18T14:08:43;0.80;99.90
21592;DHT22;10958;50.892;3.992;2022-12-18T14:11:26;0.80;99.90
21592;DHT22;10958;50.892;3.992;2022-12-18T14:13:52;0.80;99.90
21592;DHT22;10958;50.892;3.992;2022-12-18T14:16:22;0.80;99.90
21592;DHT22;10958;50.892;3.992;2022-12-18T14:18:54;0.90;99.90
21592;DHT22;10958;50.892;3.992;2022-12-18T14:21:37;0.80;99.90
21592;DHT22;10958;50.892;3.992;2022-12-18T14:24:20;0.80;99.90
21592;DHT22;10958;50.892;3.992;2022-12-18T14:26:48;0.90;99.90
21592;DHT22;10958;50.892;3.992;2022-12-18T14:29:28;1.00;99.90
21592;DHT22;10958;50.892;3.992;2022-12-18T14:32:14;0.90;99.90
21592;DHT22;10958;50.892;3.992;2022-12-18T14:34:46;0.90;99.90
21592;DHT22;10958;50.892;3.992;2022-12-18T14:37:25;0.80;99.90
21592;DHT22;10958;50.892;3.992;2022-12-18T14:39:57;0.80;99.90
21592;DHT22;10958;50.892;3.992;2022-12-18T14:42:30;0.70;99.90
21592;DHT22;10958;50.892;3.992;2022-12-18T14:48:38;0.60;99.90
21592;DHT22;10958;50.892;3.992;2022-12-18T14:56:43;0.70;99.90
21592;DHT22;10958;50.892;3.992;2022-12-18T14:59:24;0.70;99.90
21592;DHT22;10958;50.892;3.992;2022-12-18T15:02:18;0.60;99.90
21592;DHT22;10958;50.892;3.992;2022-12-18T15:05:16;0.70;99.90
21592;DHT22;10958;50.892;3.992;2022-12-18T15:07:49;0.60;99.90
21592;DHT22;10958;50.892;3.992;2022-12-18T15:10:23;0.70;99.90
21592;DHT22;10958;50.892;3.992;2022-12-18T15:18:11;0.80;99.90
21592;DHT22;10958;50.892;3.992;2022-12-18T15:26:08;0.50;99.90
21592;DHT22;10958;50.892;3.992;2022-12-18T15:29:01;0.60;99.90
21592;DHT22;10958;50.892;3.992;2022-12-18T15:31:37;0.80;99.90
21592;DHT22;10958;50.892;3.992;2022-12-18T15:34:34;0.80;99.90
21592;DHT22;10958;50.892;3.992;2022-12-18T15:37:07;0.60;99.90
21592;DHT22;10958;50.892;3.992;2022-12-18T15:42:11;0.70;99.90
21592;DHT22;10958;50.892;3.992;2022-12-18T15:45:14;0.60;99.90
21592;DHT22;10958;50.892;3.992;2022-12-18T15:47:43;0.70;99.90
21592;DHT22;10958;50.892;3.992;2022-12-18T15:50:12;0.70;99.90
21592;DHT22;10958;50.892;3.992;2022-12-18T15:53:03;0.80;99.90
21592;DHT22;10958;50.892;3.992;2022-12-18T15:55:42;0.80;99.90
21592;DHT22;10958;50.892;3.992;2022-12-18T15:58:29;0.80;99.90
21592;DHT22;10958;50.892;3.992;2022-12-18T16:00:56;0.90;99.90
21592;DHT22;10958;50.892;3.992;2022-12-18T16:03:27;0.90;99.90
21592;DHT22;10958;50.892;3.992;2022-12-18T16:06:20;0.80;99.90
21592;DHT22;10958;50.892;3.992;2022-12-18T16:09:14;0.90;99.90
21592;DHT22;10958;50.892;3.992;2022-12-18T16:11:49;0.90;99.90
21592;DHT22;10958;50.892;3.992;2022-12-18T16:14:29;0.90;99.90
21592;DHT22;10958;50.892;3.992;2022-12-18T16:24:40;0.70;99.90
21592;DHT22;10958;50.892;3.992;2022-12-18T16:27:26;0.90;99.90
21592;DHT22;10958;50.892;3.992;2022-12-18T16:29:52;0.80;99.90
21592;DHT22;10958;50.892;3.992;2022-12-18T16:32:20;0.90;99.90
21592;DHT22;10958;50.892;3.992;2022-12-18T16:34:47;0.90;99.90
21592;DHT22;10958;50.892;3.992;2022-12-18T16:37:15;0.90;99.90
21592;DHT22;10958;50.892;3.992;2022-12-18T16:39:57;1.00;99.90
21592;DHT22;10958;50.892;3.992;2022-12-18T16:42:26;0.80;99.90
21592;DHT22;10958;50.892;3.992;2022-12-18T16:45:16;0.90;99.90
21592;DHT22;10958;50.892;3.992;2022-12-18T16:47:51;1.00;99.90
21592;DHT22;10958;50.892;3.992;2022-12-18T16:50:27;0.90;99.90
21592;DHT22;10958;50.892;3.992;2022-12-18T16:52:53;0.90;99.90
21592;DHT22;10958;50.892;3.992;2022-12-18T16:55:19;1.10;99.90
21592;DHT22;10958;50.892;3.992;2022-12-18T16:57:48;1.10;99.90
21592;DHT22;10958;50.892;3.992;2022-12-18T17:02:59;1.20;99.90
21592;DHT22;10958;50.892;3.992;2022-12-18T17:05:33;1.30;99.90
21592;DHT22;10958;50.892;3.992;2022-12-18T17:08:06;1.20;99.90
21592;DHT22;10958;50.892;3.992;2022-12-18T17:10:52;1.30;99.90
21592;DHT22;10958;50.892;3.992;2022-12-18T17:13:27;1.30;99.90
21592;DHT22;10958;50.892;3.992;2022-12-18T17:15:53;1.50;99.90
21592;DHT22;10958;50.892;3.992;2022-12-18T17:18:18;1.60;99.90
21592;DHT22;10958;50.892;3.992;2022-12-18T17:21:01;1.60;99.90
21592;DHT22;10958;50.892;3.992;2022-12-18T17:23:43;1.50;99.90
21592;DHT22;10958;50.892;3.992;2022-12-18T17:26:24;1.50;99.90
21592;DHT22;10958;50.892;3.992;2022-12-18T17:28:50;1.60;99.90
21592;DHT22;10958;50.892;3.992;2022-12-18T17:31:28;1.50;99.90
21592;DHT22;10958;50.892;3.992;2022-12-18T17:33:54;1.40;99.90
21592;DHT22;10958;50.892;3.992;2022-12-18T17:36:22;1.50;99.90
21592;DHT22;10958;50.892;3.992;2022-12-18T17:39:00;1.50;99.90
21592;DHT22;10958;50.892;3.992;2022-12-18T17:41:27;1.60;99.90
21592;DHT22;10958;50.892;3.992;2022-12-18T17:43:58;1.60;99.90
21592;DHT22;10958;50.892;3.992;2022-12-18T17:46:26;1.70;99.90
21592;DHT22;10958;50.892;3.992;2022-12-18T17:48:57;1.60;99.90
21592;DHT22;10958;50.892;3.992;2022-12-18T17:51:27;1.40;99.90
21592;DHT22;10958;50.892;3.992;2022-12-18T17:54:06;1.40;99.90
21592;DHT22;10958;50.892;3.992;2022-12-18T17:56:33;1.50;99.90
21592;DHT22;10958;50.892;3.992;2022-12-18T17:59:17;1.40;99.90
21592;DHT22;10958;50.892;3.992;2022-12-18T18:02:21;1.50;99.90
21592;DHT22;10958;50.892;3.992;2022-12-18T18:04:58;1.50;99.90
21592;DHT22;10958;50.892;3.992;2022-12-18T18:07:29;1.40;99.90
21592;DHT22;10958;50.892;3.992;2022-12-18T18:10:11;1.40;99.90
21592;DHT22;10958;50.892;3.992;2022-12-18T18:12:43;1.40;99.90
21592;DHT22;10958;50.892;3.992;2022-12-18T18:15:54;1.30;99.90
21592;DHT22;10958;50.892;3.992;2022-12-18T18:18:24;1.30;99.90
21592;DHT22;10958;50.892;3.992;2022-12-18T18:21:06;1.20;99.90
21592;DHT22;10958;50.892;3.992;2022-12-18T18:24:16;1.20;99.90
21592;DHT22;10958;50.892;3.992;2022-12-18T18:26:58;1.10;99.90
21592;DHT22;10958;50.892;3.992;2022-12-18T18:29:42;1.10;99.90
21592;DHT22;10958;50.892;3.992;2022-12-18T18:32:11;1.00;99.90
21592;DHT22;10958;50.892;3.992;2022-12-18T18:34:49;1.10;99.90
21592;DHT22;10958;50.892;3.992;2022-12-18T18:39:53;1.10;99.90
21592;DHT22;10958;50.892;3.992;2022-12-18T18:42:27;1.00;99.90
21592;DHT22;10958;50.892;3.992;2022-12-18T18:45:13;1.00;99.90
21592;DHT22;10958;50.892;3.992;2022-12-18T18:47:43;1.10;99.90
21592;DHT22;10958;50.892;3.992;2022-12-18T18:50:09;1.20;99.90
21592;DHT22;10958;50.892;3.992;2022-12-18T18:53:10;1.40;99.90
21592;DHT22;10958;50.892;3.992;2022-12-18T18:55:36;1.30;99.90
21592;DHT22;10958;50.892;3.992;2022-12-18T18:58:13;1.30;99.90
21592;DHT22;10958;50.892;3.992;2022-12-18T19:00:39;1.20;99.90
21592;DHT22;10958;50.892;3.992;2022-12-18T19:03:05;1.20;99.90
21592;DHT22;10958;50.892;3.992;2022-12-18T19:05:40;1.30;99.90
21592;DHT22;10958;50.892;3.992;2022-12-18T19:08:06;1.40;99.90
21592;DHT22;10958;50.892;3.992;2022-12-18T19:10:36;1.50;99.90
21592;DHT22;10958;50.892;3.992;2022-12-18T19:13:14;1.50;99.90
21592;DHT22;10958;50.892;3.992;2022-12-18T19:18:57;1.40;99.90
21592;DHT22;10958;50.892;3.992;2022-12-18T19:21:25;1.40;99.90
21592;DHT22;10958;50.892;3.992;2022-12-18T19:24:05;1.50;99.90
21592;DHT22;10958;50.892;3.992;2022-12-18T19:26:39;1.50;99.90
21592;DHT22;10958;50.892;3.992;2022-12-18T19:29:10;1.50;99.90
21592;DHT22;10958;50.892;3.992;2022-12-18T19:31:37;1.40;99.90
21592;DHT22;10958;50.892;3.992;2022-12-18T19:34:06;1.50;99.90
21592;DHT22;10958;50.892;3.992;2022-12-18T19:36:36;1.60;99.90
21592;DHT22;10958;50.892;3.992;2022-12-18T19:39:09;1.60;99.90
21592;DHT22;10958;50.892;3.992;2022-12-18T19:41:39;1.60;99.90
21592;DHT22;10958;50.892;3.992;2022-12-18T19:44:17;1.60;99.90
21592;DHT22;10958;50.892;3.992;2022-12-18T19:46:51;1.60;99.90
21592;DHT22;10958;50.892;3.992;2022-12-18T19:49:24;1.60;99.90
21592;DHT22;10958;50.892;3.992;2022-12-18T19:51:58;1.60;99.90
21592;DHT22;10958;50.892;3.992;2022-12-18T19:54:33;1.60;99.90
21592;DHT22;10958;50.892;3.992;2022-12-18T19:57:00;1.70;99.90
21592;DHT22;10958;50.892;3.992;2022-12-18T19:59:39;1.60;99.90
21592;DHT22;10958;50.892;3.992;2022-12-18T20:03:16;1.70;99.90
21592;DHT22;10958;50.892;3.992;2022-12-18T20:05:30;1.60;99.90
21592;DHT22;10958;50.892;3.992;2022-12-18T20:07:59;1.50;99.90
21592;DHT22;10958;50.892;3.992;2022-12-18T20:10:28;1.50;99.90
21592;DHT22;10958;50.892;3.992;2022-12-18T20:12:57;1.40;99.90
21592;DHT22;10958;50.892;3.992;2022-12-18T20:15:23;1.50;99.90
21592;DHT22;10958;50.892;3.992;2022-12-18T20:17:58;1.50;99.90
21592;DHT22;10958;50.892;3.992;2022-12-18T20:20:24;1.60;99.90
21592;DHT22;10958;50.892;3.992;2022-12-18T20:23:05;1.60;99.90
21592;DHT22;10958;50.892;3.992;2022-12-18T20:25:37;1.60;99.90
21592;DHT22;10958;50.892;3.992;2022-12-18T20:28:09;1.70;99.90
21592;DHT22;10958;50.892;3.992;2022-12-18T20:30:38;1.60;99.90
21592;DHT22;10958;50.892;3.992;2022-12-18T20:33:10;1.80;99.90
21592;DHT22;10958;50.892;3.992;2022-12-18T20:35:36;1.70;99.90
21592;DHT22;10958;50.892;3.992;2022-12-18T20:38:02;1.60;99.90
21592;DHT22;10958;50.892;3.992;2022-12-18T20:40:40;1.70;99.90
21592;DHT22;10958;50.892;3.992;2022-12-18T20:43:05;1.70;99.90
21592;DHT22;10958;50.892;3.992;2022-12-18T20:45:43;1.70;99.90
21592;DHT22;10958;50.892;3.992;2022-12-18T20:48:12;1.70;99.90
21592;DHT22;10958;50.892;3.992;2022-12-18T20:50:43;1.70;99.90
21592;DHT22;10958;50.892;3.992;2022-12-18T20:53:10;1.60;99.90
21592;DHT22;10958;50.892;3.992;2022-12-18T20:55:51;1.60;99.90
21592;DHT22;10958;50.892;3.992;2022-12-18T20:58:17;1.60;99.90
21592;DHT22;10958;50.892;3.992;2022-12-18T21:01:18;1.70;99.90
21592;DHT22;10958;50.892;3.992;2022-12-18T21:03:45;1.70;99.90
21592;DHT22;10958;50.892;3.992;2022-12-18T21:06:21;1.70;99.90
21592;DHT22;10958;50.892;3.992;2022-12-18T21:08:50;1.70;99.90
21592;DHT22;10958;50.892;3.992;2022-12-18T21:11:32;1.70;99.90
21592;DHT22;10958;50.892;3.992;2022-12-18T21:14:19;1.70;99.90
21592;DHT22;10958;50.892;3.992;2022-12-18T21:17:01;1.70;99.90
21592;DHT22;10958;50.892;3.992;2022-12-18T21:19:41;1.80;99.90
21592;DHT22;10958;50.892;3.992;2022-12-18T21:22:07;1.90;99.90
21592;DHT22;10958;50.892;3.992;2022-12-18T21:24:35;1.90;99.90
21592;DHT22;10958;50.892;3.992;2022-12-18T21:27:05;2.00;99.90
21592;DHT22;10958;50.892;3.992;2022-12-18T21:29:31;2.00;99.90
21592;DHT22;10958;50.892;3.992;2022-12-18T21:32:06;2.10;99.90
21592;DHT22;10958;50.892;3.992;2022-12-18T21:34:33;2.10;99.90
21592;DHT22;10958;50.892;3.992;2022-12-18T21:37:00;2.20;99.90
21592;DHT22;10958;50.892;3.992;2022-12-18T21:39:38;2.30;99.90